Time;durP1;ratioP1;P1;durP2;ratioP2;P2;SDS_P1;SDS_P2;PMS_P1;PMS_P2;Temp;Humidity;BMP_temperature;BMP_pressure;BME280_temperature;BME280_humidity;BME280_pressure;Samples;Min_cycle;Max_cycle;Signal;HPM_P1;HPM_P2
2020/12/14 00:00:41;;;;;;;4.35;2.58;;;7.80;91.40;;;;;;5067443;28;20093;-42
2020/12/14 00:03:06;;;;;;;5.85;2.40;;;7.80;91.50;;;;;;5069647;28;20537;-43
2020/12/14 00:05:33;;;;;;;7.90;2.60;;;7.80;91.40;;;;;;5069944;28;20376;-42
2020/12/14 00:08:01;;;;;;;7.38;2.50;;;7.80;91.40;;;;;;5069428;28;20046;-42
2020/12/14 00:10:26;;;;;;;8.50;2.60;;;7.90;91.40;;;;;;5069232;28;20016;-43
2020/12/14 00:12:52;;;;;;;5.70;2.95;;;7.90;91.40;;;;;;5069610;28;20036;-42
2020/12/14 00:15:17;;;;;;;5.90;2.65;;;7.90;91.30;;;;;;5069155;28;20036;-43
2020/12/14 00:17:43;;;;;;;6.80;2.20;;;7.90;91.30;;;;;;5069633;28;20496;-44
2020/12/14 00:20:08;;;;;;;8.02;2.38;;;7.90;91.30;;;;;;5068849;28;20058;-42
2020/12/14 00:22:34;;;;;;;4.63;2.33;;;7.90;91.10;;;;;;5069574;28;20060;-42
2020/12/14 00:25:01;;;;;;;5.10;2.33;;;8.00;91.10;;;;;;5069585;28;20032;-42
2020/12/14 00:27:28;;;;;;;7.78;2.42;;;8.00;91.00;;;;;;5068707;28;20036;-43
2020/12/14 00:29:54;;;;;;;7.07;2.25;;;8.00;91.00;;;;;;5069316;28;20028;-43
2020/12/14 00:32:20;;;;;;;7.07;2.70;;;8.00;90.80;;;;;;5068539;28;20028;-43
2020/12/14 00:34:45;;;;;;;7.05;2.67;;;8.00;90.90;;;;;;5069307;28;20024;-43
2020/12/14 00:37:11;;;;;;;6.80;2.67;;;8.10;90.90;;;;;;5068822;28;20111;-43
2020/12/14 00:39:36;;;;;;;4.00;2.15;;;8.10;90.80;;;;;;5069314;28;20031;-43
2020/12/14 00:42:03;;;;;;;6.45;2.42;;;8.10;90.90;;;;;;5068988;28;20016;-42
2020/12/14 00:44:29;;;;;;;5.38;2.13;;;8.10;90.80;;;;;;5067645;28;20029;-43
2020/12/14 00:46:54;;;;;;;6.63;2.05;;;8.10;90.60;;;;;;5068524;28;20025;-43
2020/12/14 00:49:20;;;;;;;4.80;2.30;;;8.10;90.70;;;;;;5067979;28;20122;-43
2020/12/14 00:51:46;;;;;;;5.65;2.55;;;8.10;90.80;;;;;;5069380;28;20035;-43
2020/12/14 00:54:11;;;;;;;6.97;2.50;;;8.10;90.70;;;;;;5068030;28;20049;-42
2020/12/14 00:56:37;;;;;;;9.10;2.78;;;8.20;90.80;;;;;;5068402;28;20059;-44
2020/12/14 00:59:03;;;;;;;5.03;2.63;;;8.20;90.50;;;;;;5069182;28;20021;-44
2020/12/14 01:01:29;;;;;;;4.72;2.00;;;8.10;90.50;;;;;;5068150;28;20028;-43
2020/12/14 01:03:55;;;;;;;5.38;2.13;;;8.10;90.70;;;;;;5068650;28;20543;-43
2020/12/14 01:06:20;;;;;;;4.80;2.45;;;8.20;90.60;;;;;;5068076;28;20721;-42
2020/12/14 01:08:46;;;;;;;5.47;2.28;;;8.20;90.50;;;;;;5068950;28;20043;-42
2020/12/14 01:11:11;;;;;;;7.03;2.50;;;8.20;90.40;;;;;;5067826;28;20156;-43
2020/12/14 01:13:37;;;;;;;5.88;2.38;;;8.20;90.50;;;;;;5068455;28;20059;-43
2020/12/14 01:16:07;;;;;;;5.47;2.25;;;8.20;90.40;;;;;;5068795;28;20024;-43
2020/12/14 01:18:33;;;;;;;6.25;2.10;;;8.20;90.40;;;;;;5068088;28;20032;-43
2020/12/14 01:20:58;;;;;;;4.80;2.13;;;8.20;90.20;;;;;;5068253;28;20029;-43
2020/12/14 01:23:24;;;;;;;5.28;2.10;;;8.20;90.50;;;;;;5067664;28;20468;-42
2020/12/14 01:25:49;;;;;;;5.97;2.80;;;8.20;90.50;;;;;;5068390;28;20105;-43
2020/12/14 01:28:15;;;;;;;5.88;2.22;;;8.30;90.50;;;;;;5067610;28;20070;-44
2020/12/14 01:30:40;;;;;;;5.38;2.10;;;8.20;90.50;;;;;;5068060;28;20082;-43
2020/12/14 01:33:06;;;;;;;4.20;1.98;;;8.20;90.60;;;;;;5067809;28;20032;-45
2020/12/14 01:35:31;;;;;;;5.35;2.03;;;8.20;90.70;;;;;;5068020;28;20391;-43
2020/12/14 01:37:57;;;;;;;7.13;2.25;;;8.20;90.70;;;;;;5068017;28;20036;-43
2020/12/14 01:40:22;;;;;;;4.68;2.00;;;8.20;90.60;;;;;;5067496;28;20025;-43
2020/12/14 01:42:48;;;;;;;5.40;2.15;;;8.30;90.60;;;;;;5068019;28;20102;-42
2020/12/14 01:45:18;;;;;;;5.60;2.13;;;8.30;90.70;;;;;;5066851;28;20027;-43
2020/12/14 01:47:47;;;;;;;5.88;2.10;;;8.30;90.60;;;;;;5068390;28;20115;-43
2020/12/14 01:50:13;;;;;;;3.65;1.90;;;8.30;90.50;;;;;;5067288;28;20028;-43
2020/12/14 01:52:40;;;;;;;6.15;2.28;;;8.30;90.50;;;;;;5067149;28;20042;-43
2020/12/14 01:55:08;;;;;;;3.60;2.20;;;8.30;90.60;;;;;;5067739;28;20132;-42
2020/12/14 01:57:37;;;;;;;5.75;2.22;;;8.30;90.40;;;;;;5067471;28;20020;-43
2020/12/14 02:00:05;;;;;;;3.72;2.33;;;8.30;90.40;;;;;;5067166;28;20025;-42
2020/12/14 02:02:31;;;;;;;6.10;2.40;;;8.30;90.50;;;;;;5067753;28;20024;-43
2020/12/14 02:04:56;;;;;;;6.63;2.10;;;8.30;90.40;;;;;;5067694;28;20381;-43
2020/12/14 02:07:24;;;;;;;5.13;2.63;;;8.40;90.50;;;;;;5066474;28;20540;-43
2020/12/14 02:09:53;;;;;;;4.57;2.17;;;8.40;90.40;;;;;;5067695;28;20078;-44
2020/12/14 02:12:21;;;;;;;3.97;2.35;;;8.40;90.40;;;;;;5066720;28;20029;-43
2020/12/14 02:14:48;;;;;;;5.72;2.20;;;8.40;90.40;;;;;;5067098;28;20484;-43
2020/12/14 02:17:18;;;;;;;6.55;2.45;;;8.40;90.40;;;;;;5066719;28;20447;-43
2020/12/14 02:19:44;;;;;;;4.63;2.40;;;8.40;90.40;;;;;;5066917;28;20052;-42
2020/12/14 02:22:10;;;;;;;5.00;2.10;;;8.40;90.30;;;;;;5066768;28;20357;-44
2020/12/14 02:24:35;;;;;;;6.65;2.45;;;8.40;90.40;;;;;;5067556;28;20070;-43
2020/12/14 02:27:01;;;;;;;5.80;2.10;;;8.40;90.40;;;;;;5066844;28;20055;-43
2020/12/14 02:29:26;;;;;;;6.50;2.20;;;8.40;90.40;;;;;;5066793;28;20036;-42
2020/12/14 02:31:52;;;;;;;3.40;2.10;;;8.40;90.80;;;;;;5067353;28;20395;-43
2020/12/14 02:34:17;;;;;;;6.93;2.30;;;8.40;90.50;;;;;;5066026;28;20051;-42
2020/12/14 02:36:43;;;;;;;4.90;2.30;;;8.40;90.60;;;;;;5067085;28;20028;-42
2020/12/14 02:39:08;;;;;;;5.25;2.20;;;8.50;90.60;;;;;;5066669;28;20028;-43
2020/12/14 02:41:34;;;;;;;5.70;1.92;;;8.50;90.60;;;;;;5066248;28;20623;-43
2020/12/14 02:43:59;;;;;;;6.32;1.90;;;8.50;90.70;;;;;;5067198;28;20040;-42
2020/12/14 02:46:25;;;;;;;3.90;1.90;;;8.50;90.70;;;;;;5066826;28;20024;-42
2020/12/14 02:48:50;;;;;;;4.97;2.05;;;8.50;90.70;;;;;;5066645;28;20139;-43
2020/12/14 02:51:19;;;;;;;5.55;2.30;;;8.50;90.80;;;;;;5066403;28;20056;-42
2020/12/14 02:53:47;;;;;;;4.30;1.90;;;8.50;90.80;;;;;;5066800;28;20052;-42
2020/12/14 02:56:13;;;;;;;7.00;2.67;;;8.50;91.00;;;;;;5065961;28;20484;-43
2020/12/14 02:58:38;;;;;;;5.10;2.10;;;8.50;91.30;;;;;;5066745;28;20036;-42
2020/12/14 03:01:04;;;;;;;6.80;2.20;;;8.50;91.30;;;;;;5067077;28;20025;-43
2020/12/14 03:03:30;;;;;;;5.40;2.00;;;8.40;91.60;;;;;;5065793;28;20071;-43
2020/12/14 03:05:55;;;;;;;3.40;1.85;;;8.40;91.90;;;;;;5066758;28;20025;-43
2020/12/14 03:08:21;;;;;;;5.22;2.20;;;8.40;91.90;;;;;;5065471;28;20060;-43
2020/12/14 03:10:46;;;;;;;6.25;2.30;;;8.30;92.10;;;;;;5066091;28;20021;-43
2020/12/14 03:13:12;;;;;;;3.70;2.10;;;8.30;92.20;;;;;;5065944;28;20383;-43
2020/12/14 03:15:40;;;;;;;3.53;1.80;;;8.30;92.30;;;;;;5066698;28;20029;-43
2020/12/14 03:18:06;;;;;;;4.28;2.60;;;8.30;92.20;;;;;;5066054;28;20024;-44
2020/12/14 03:20:35;;;;;;;5.43;2.20;;;8.30;92.30;;;;;;5066445;28;20121;-44
2020/12/14 03:23:00;;;;;;;4.25;1.90;;;8.30;92.30;;;;;;5066426;28;20020;-43
2020/12/14 03:25:26;;;;;;;3.08;2.03;;;8.30;92.20;;;;;;5065863;28;20043;-43
2020/12/14 03:27:52;;;;;;;6.43;3.20;;;8.30;92.20;;;;;;5066348;28;20035;-42
2020/12/14 03:30:18;;;;;;;4.40;2.20;;;8.30;92.30;;;;;;5065968;28;20028;-43
2020/12/14 03:32:44;;;;;;;5.93;2.60;;;8.30;92.40;;;;;;5066427;28;20041;-43
2020/12/14 03:35:10;;;;;;;5.05;2.17;;;8.40;92.40;;;;;;5065991;28;20056;-43
2020/12/14 03:37:36;;;;;;;8.07;2.13;;;8.40;92.60;;;;;;5065766;28;20067;-43
2020/12/14 03:40:02;;;;;;;5.20;2.28;;;8.30;92.60;;;;;;5066389;28;20029;-42
2020/12/14 03:42:29;;;;;;;3.92;2.25;;;8.30;93.10;;;;;;5065805;28;20482;-43
2020/12/14 03:44:55;;;;;;;6.45;2.10;;;8.30;93.40;;;;;;5066008;28;20017;-44
2020/12/14 03:47:21;;;;;;;5.18;2.10;;;8.30;93.20;;;;;;5066183;28;20368;-44
2020/12/14 03:49:46;;;;;;;5.07;2.20;;;8.20;93.40;;;;;;5066141;28;20080;-43
2020/12/14 03:52:11;;;;;;;4.47;2.30;;;8.20;93.30;;;;;;5065077;28;20142;-43
2020/12/14 03:54:37;;;;;;;2.90;2.13;;;8.20;93.40;;;;;;5066117;28;20182;-42
2020/12/14 03:57:02;;;;;;;4.47;2.10;;;8.20;93.80;;;;;;5066458;28;20034;-43
2020/12/14 03:59:28;;;;;;;3.72;2.28;;;8.10;94.00;;;;;;5065083;28;20033;-43
2020/12/14 04:01:55;;;;;;;5.97;2.60;;;8.10;94.10;;;;;;5066495;28;20111;-44
2020/12/14 04:04:21;;;;;;;3.72;2.30;;;8.10;94.30;;;;;;5065538;28;20029;-43
2020/12/14 04:06:46;;;;;;;6.90;2.63;;;8.10;94.40;;;;;;5065678;28;20150;-43
2020/12/14 04:09:12;;;;;;;5.78;2.58;;;8.10;94.50;;;;;;5065731;28;20032;-42
2020/12/14 04:11:37;;;;;;;5.88;2.42;;;8.10;94.80;;;;;;5066242;28;20063;-43
2020/12/14 04:14:03;;;;;;;3.88;2.28;;;8.10;94.60;;;;;;5065875;28;20444;-43
2020/12/14 04:16:28;;;;;;;4.78;2.58;;;8.10;94.70;;;;;;5065879;28;20029;-43
2020/12/14 04:18:54;;;;;;;5.00;2.40;;;8.10;94.70;;;;;;5066287;28;20032;-41
2020/12/14 04:21:19;;;;;;;4.22;2.05;;;8.10;94.60;;;;;;5068634;28;20027;-43
2020/12/14 04:23:45;;;;;;;3.25;2.15;;;8.10;94.50;;;;;;5069771;28;20020;-43
2020/12/14 04:26:14;;;;;;;6.28;2.45;;;8.10;94.70;;;;;;5068580;28;20017;-42
2020/12/14 04:28:39;;;;;;;2.85;2.30;;;8.10;94.60;;;;;;5070032;28;20102;-43
2020/12/14 04:31:05;;;;;;;5.25;2.38;;;8.20;94.60;;;;;;5069480;28;20463;-43
2020/12/14 04:33:30;;;;;;;3.55;2.72;;;8.20;94.90;;;;;;5068657;28;20487;-43
2020/12/14 04:35:56;;;;;;;2.80;2.20;;;8.20;95.10;;;;;;5069699;28;20016;-43
2020/12/14 04:38:22;;;;;;;5.57;2.60;;;8.20;94.80;;;;;;5068552;28;20024;-42
2020/12/14 04:40:47;;;;;;;3.58;2.70;;;8.20;94.80;;;;;;5068867;28;20024;-42
2020/12/14 04:43:15;;;;;;;4.82;2.30;;;8.20;95.00;;;;;;5068840;28;20108;-43
2020/12/14 04:45:41;;;;;;;3.53;2.10;;;8.20;94.80;;;;;;5069384;28;20754;-42
2020/12/14 04:48:08;;;;;;;4.80;2.30;;;8.20;94.90;;;;;;5068300;28;20028;-42
2020/12/14 04:50:35;;;;;;;5.63;2.53;;;8.20;94.80;;;;;;5069094;28;20036;-44
2020/12/14 04:53:04;;;;;;;3.65;1.88;;;8.30;95.30;;;;;;5068830;28;20472;-42
2020/12/14 04:55:34;;;;;;;5.57;2.55;;;8.20;95.20;;;;;;5067885;28;20059;-43
2020/12/14 04:57:59;;;;;;;3.20;2.40;;;8.20;95.30;;;;;;5069413;28;20082;-43
2020/12/14 05:00:25;;;;;;;3.92;2.00;;;8.20;95.40;;;;;;5068433;28;20032;-44
2020/12/14 05:02:55;;;;;;;5.43;1.85;;;8.20;95.40;;;;;;5068681;28;20109;-43
2020/12/14 05:05:21;;;;;;;3.80;2.28;;;8.20;95.40;;;;;;5068354;28;20407;-43
2020/12/14 05:07:47;;;;;;;3.72;1.98;;;8.20;95.60;;;;;;5069121;28;20048;-44
2020/12/14 05:10:13;;;;;;;4.18;1.95;;;8.20;95.50;;;;;;5068272;28;20052;-42
2020/12/14 05:12:43;;;;;;;2.30;2.05;;;8.30;95.50;;;;;;5068738;28;20094;-42
2020/12/14 05:15:22;;;;;;;3.33;1.75;;;8.30;95.60;;;;;;5068251;28;20047;-42
2020/12/14 05:17:54;;;;;;;3.00;2.10;;;8.30;95.60;;;;;;5068789;28;20677;-43
2020/12/14 05:20:20;;;;;;;2.47;2.00;;;8.30;95.60;;;;;;5068667;28;20099;-43
2020/12/14 05:23:01;;;;;;;4.43;2.38;;;8.30;95.70;;;;;;5068236;28;20088;-42
2020/12/14 05:25:28;;;;;;;4.18;2.22;;;8.30;95.70;;;;;;5068037;28;20025;-43
2020/12/14 05:28:02;;;;;;;4.57;2.10;;;8.30;95.90;;;;;;5069174;28;20460;-43
2020/12/14 05:30:39;;;;;;;5.55;2.00;;;8.30;95.80;;;;;;5067169;28;20044;-43
2020/12/14 05:33:05;;;;;;;3.05;2.20;;;8.30;95.70;;;;;;5068490;28;20036;-43
2020/12/14 05:35:32;;;;;;;3.17;1.98;;;8.30;95.90;;;;;;5068019;28;20031;-43
2020/12/14 05:38:10;;;;;;;3.75;2.30;;;8.30;95.80;;;;;;5068076;28;20109;-43
2020/12/14 05:40:35;;;;;;;4.40;2.33;;;8.30;95.80;;;;;;5068483;28;20025;-43
2020/12/14 05:43:11;;;;;;;2.90;2.35;;;8.30;95.90;;;;;;5067939;28;20024;-43
2020/12/14 05:45:39;;;;;;;3.28;2.15;;;8.40;95.80;;;;;;5067872;28;20028;-43
2020/12/14 05:48:20;;;;;;;3.72;2.10;;;8.40;95.80;;;;;;5068265;28;20039;-43
2020/12/14 05:50:47;;;;;;;6.18;2.50;;;8.40;95.80;;;;;;5067737;28;20028;-42
2020/12/14 05:53:17;;;;;;;4.97;2.45;;;8.40;95.90;;;;;;5067181;28;20064;-43
2020/12/14 05:55:44;;;;;;;3.35;2.58;;;8.40;95.90;;;;;;5068249;28;20040;-43
2020/12/14 05:58:13;;;;;;;5.40;2.25;;;8.30;95.80;;;;;;5067291;28;20047;-42
2020/12/14 06:00:48;;;;;;;2.70;2.30;;;8.40;95.80;;;;;;5067951;28;20036;-43
2020/12/14 06:03:13;;;;;;;2.55;2.35;;;8.40;95.80;;;;;;5067033;28;20360;-43
2020/12/14 06:05:39;;;;;;;4.78;2.30;;;8.40;95.80;;;;;;5067740;28;20024;-43
2020/12/14 06:08:17;;;;;;;2.30;2.10;;;8.40;95.70;;;;;;5067855;28;20496;-42
2020/12/14 06:10:49;;;;;;;3.90;2.10;;;8.40;95.70;;;;;;5068228;28;20078;-43
2020/12/14 06:13:21;;;;;;;2.87;1.93;;;8.40;95.70;;;;;;5066538;28;20029;-43
2020/12/14 06:15:50;;;;;;;4.97;2.80;;;8.50;95.70;;;;;;5067721;28;20021;-44
2020/12/14 06:18:21;;;;;;;3.70;2.15;;;8.40;95.60;;;;;;5067080;28;20028;-43
2020/12/14 06:20:48;;;;;;;5.93;2.88;;;8.50;95.60;;;;;;5067539;28;20024;-43
2020/12/14 06:23:16;;;;;;;3.65;2.35;;;8.50;95.60;;;;;;5066953;28;20055;-43
2020/12/14 06:25:42;;;;;;;3.72;2.47;;;8.50;95.90;;;;;;5067099;28;20039;-43
2020/12/14 06:28:27;;;;;;;3.20;2.28;;;8.50;95.60;;;;;;5067014;28;20035;-44
2020/12/14 06:30:54;;;;;;;2.53;2.10;;;8.50;95.60;;;;;;5067519;28;20044;-43
2020/12/14 06:33:37;;;;;;;4.03;2.65;;;8.50;95.60;;;;;;5066368;28;20032;-43
2020/12/14 06:36:22;;;;;;;3.38;2.13;;;8.50;95.50;;;;;;5067293;28;20028;-44
2020/12/14 06:38:49;;;;;;;2.72;2.15;;;8.50;95.50;;;;;;5067101;28;20029;-43
2020/12/14 06:41:16;;;;;;;5.50;3.08;;;8.50;95.50;;;;;;5066308;28;20543;-43
2020/12/14 06:43:47;;;;;;;3.92;2.80;;;8.50;95.50;;;;;;5066287;28;20099;-42
2020/12/14 06:46:13;;;;;;;3.33;2.55;;;8.50;95.50;;;;;;5066611;28;20046;-44
2020/12/14 06:48:44;;;;;;;5.80;2.97;;;8.50;95.50;;;;;;5066674;28;20029;-43
2020/12/14 06:51:15;;;;;;;3.72;2.50;;;8.50;95.60;;;;;;5065993;28;20067;-43
2020/12/14 06:53:50;;;;;;;6.68;3.40;;;8.50;95.50;;;;;;5066398;28;20040;-43
2020/12/14 06:56:36;;;;;;;4.00;2.80;;;8.50;95.50;;;;;;5052578;28;20052;-43
2020/12/14 06:59:24;;;;;;;5.72;3.25;;;8.50;95.60;;;;;;5045979;28;20031;-43
2020/12/14 07:01:58;;;;;;;4.95;3.08;;;8.50;95.60;;;;;;5045187;28;20033;-42
2020/12/14 07:04:31;;;;;;;4.70;2.88;;;8.50;95.60;;;;;;5045900;28;20056;-43
2020/12/14 07:07:17;;;;;;;4.10;2.58;;;8.50;95.60;;;;;;5045819;28;20044;-42
2020/12/14 07:09:43;;;;;;;3.83;2.92;;;8.50;95.70;;;;;;5045772;28;20032;-43
2020/12/14 07:12:09;;;;;;;4.68;3.55;;;8.50;95.80;;;;;;5045181;28;20076;-42
2020/12/14 07:14:52;;;;;;;3.92;2.60;;;8.50;95.80;;;;;;5063903;28;20119;-43
2020/12/14 07:17:25;;;;;;;3.30;3.00;;;8.50;95.80;;;;;;5066313;28;20099;-43
2020/12/14 07:20:00;;;;;;;3.58;3.05;;;8.50;95.80;;;;;;5060827;28;20062;-43
2020/12/14 07:22:46;;;;;;;3.55;3.08;;;8.50;95.80;;;;;;5054777;28;20059;-43
2020/12/14 07:25:20;;;;;;;5.30;3.17;;;8.50;95.80;;;;;;5054255;28;20485;-44
2020/12/14 07:27:46;;;;;;;4.05;2.70;;;8.60;95.90;;;;;;5055895;28;20020;-42
2020/12/14 07:30:11;;;;;;;6.00;3.10;;;8.60;95.90;;;;;;5059475;28;20109;-43
2020/12/14 07:32:38;;;;;;;4.35;3.63;;;8.60;95.90;;;;;;5066515;28;20024;-43
2020/12/14 07:35:06;;;;;;;3.97;3.53;;;8.60;95.90;;;;;;5066500;28;20028;-43
2020/12/14 07:37:32;;;;;;;5.28;3.53;;;8.60;95.90;;;;;;5065982;28;20031;-42
2020/12/14 07:39:58;;;;;;;6.50;3.97;;;8.60;95.90;;;;;;5066582;28;20068;-44
2020/12/14 07:42:28;;;;;;;4.15;3.75;;;8.60;95.90;;;;;;5066035;28;20606;-44
2020/12/14 07:45:06;;;;;;;5.70;3.60;;;8.60;95.90;;;;;;5066243;28;20044;-42
2020/12/14 07:47:31;;;;;;;5.95;3.72;;;8.60;95.90;;;;;;5066341;28;20472;-42
2020/12/14 07:50:14;;;;;;;4.18;3.22;;;8.60;95.90;;;;;;5066615;28;20082;-42
2020/12/14 07:52:40;;;;;;;;;;;8.60;95.90;;;;;;5067117;28;20025;-42
2020/12/14 07:55:08;;;;;;;4.45;3.05;;;8.60;96.00;;;;;;5068310;28;19971;-43
2020/12/14 07:57:39;;;;;;;4.20;3.08;;;8.60;95.90;;;;;;5069809;28;20451;-43
2020/12/14 08:00:13;;;;;;;3.72;3.05;;;8.60;96.00;;;;;;5070064;28;20396;-43
2020/12/14 08:02:40;;;;;;;3.17;2.88;;;8.60;96.00;;;;;;5067125;28;20769;-43
2020/12/14 08:05:12;;;;;;;3.85;3.45;;;8.70;96.00;;;;;;5058113;28;20025;-43
2020/12/14 08:07:49;;;;;;;3.43;3.13;;;8.70;96.00;;;;;;5056443;28;20377;-43
2020/12/14 08:10:16;;;;;;;7.18;4.07;;;8.70;96.20;;;;;;5049226;28;20400;-43
2020/12/14 08:12:43;;;;;;;3.53;3.22;;;8.70;96.30;;;;;;5049876;28;20029;-42
2020/12/14 08:15:18;;;;;;;4.32;3.80;;;8.70;96.30;;;;;;5049515;28;20029;-44
2020/12/14 08:17:45;;;;;;;4.65;3.97;;;8.80;96.60;;;;;;5068697;28;20734;-43
2020/12/14 08:20:25;;;;;;;6.03;4.10;;;8.80;96.70;;;;;;5068706;28;20135;-43
2020/12/14 08:22:51;;;;;;;4.50;4.10;;;8.90;96.90;;;;;;5069848;28;20029;-43
2020/12/14 08:25:22;;;;;;;4.32;3.92;;;8.90;96.90;;;;;;5068803;28;20457;-42
2020/12/14 08:27:55;;;;;;;4.50;4.10;;;9.00;96.80;;;;;;5058041;28;20082;-43
2020/12/14 08:30:22;;;;;;;5.97;4.20;;;9.00;96.90;;;;;;5057189;28;20864;-43
2020/12/14 08:33:14;;;;;;;4.95;4.45;;;9.00;96.90;;;;;;5057834;28;20404;-43
2020/12/14 08:35:44;;;;;;;4.20;3.80;;;9.10;97.00;;;;;;5053133;28;20079;-42
2020/12/14 08:38:15;;;;;;;4.22;3.85;;;9.10;96.80;;;;;;5048743;28;20550;-42
2020/12/14 08:40:51;;;;;;;3.90;3.60;;;9.10;96.80;;;;;;5051185;28;20032;-43
2020/12/14 08:43:20;;;;;;;4.40;3.92;;;9.10;96.80;;;;;;5056538;28;20021;-43
2020/12/14 08:46:11;;;;;;;4.25;3.60;;;9.20;96.80;;;;;;5060314;28;20048;-42
2020/12/14 08:48:43;;;;;;;4.85;3.97;;;9.20;96.90;;;;;;5059269;28;20032;-42
2020/12/14 08:51:14;;;;;;;5.72;4.45;;;9.20;97.20;;;;;;5069060;28;20021;-43
2020/12/14 08:53:41;;;;;;;4.40;4.00;;;9.20;96.90;;;;;;5068565;28;20796;-43
2020/12/14 08:56:12;;;;;;;5.57;4.30;;;9.30;96.90;;;;;;5055167;28;20035;-43
2020/12/14 08:58:58;;;;;;;5.82;5.22;;;9.30;97.20;;;;;;5063262;28;20037;-43
2020/12/14 09:01:29;;;;;;;4.97;4.50;;;9.30;97.10;;;;;;5068359;28;20095;-44
2020/12/14 09:04:03;;;;;;;4.50;4.10;;;9.30;97.20;;;;;;5069118;28;20027;-42
2020/12/14 09:06:35;;;;;;;3.97;3.67;;;9.40;97.10;;;;;;5067372;28;20071;-44
2020/12/14 09:09:13;;;;;;;5.13;4.38;;;9.40;97.10;;;;;;5068602;28;20032;-43
2020/12/14 09:11:42;;;;;;;3.90;3.60;;;9.40;97.20;;;;;;5069415;28;20024;-43
2020/12/14 09:14:08;;;;;;;4.78;3.47;;;9.50;97.10;;;;;;5068631;28;20040;-43
2020/12/14 09:16:35;;;;;;;4.65;4.25;;;9.50;97.10;;;;;;5066564;28;20458;-43
2020/12/14 09:19:01;;;;;;;4.30;3.90;;;9.60;97.20;;;;;;5068406;28;20059;-42
2020/12/14 09:21:26;;;;;;;4.18;3.80;;;9.60;97.20;;;;;;5067947;28;20020;-43
2020/12/14 09:24:19;;;;;;;4.05;3.75;;;9.60;97.30;;;;;;5069031;28;20039;-42
2020/12/14 09:26:47;;;;;;;4.55;4.10;;;9.70;97.50;;;;;;5069137;28;20027;-43
2020/12/14 09:29:13;;;;;;;4.00;3.70;;;9.70;97.40;;;;;;5067261;28;20075;-43
2020/12/14 09:31:40;;;;;;;4.03;3.72;;;9.80;97.30;;;;;;5068472;28;20028;-43
2020/12/14 09:34:06;;;;;;;3.30;3.00;;;9.80;97.30;;;;;;5068182;28;20071;-42
2020/12/14 09:36:32;;;;;;;3.78;3.47;;;9.90;97.20;;;;;;5067549;28;20056;-43
2020/12/14 09:38:57;;;;;;;3.78;3.47;;;9.90;97.20;;;;;;5068044;28;20396;-43
2020/12/14 09:41:29;;;;;;;3.55;3.25;;;10.00;97.20;;;;;;5067421;28;20021;-43
2020/12/14 09:43:54;;;;;;;4.53;3.60;;;10.00;97.10;;;;;;5068165;28;20024;-44
2020/12/14 09:46:23;;;;;;;4.68;3.33;;;10.10;97.10;;;;;;5067180;28;20029;-43
2020/12/14 09:48:48;;;;;;;2.75;2.55;;;10.10;97.10;;;;;;5067852;28;20036;-44
2020/12/14 09:51:14;;;;;;;4.20;3.03;;;10.20;97.10;;;;;;5067163;28;20384;-42
2020/12/14 09:53:39;;;;;;;3.78;3.33;;;10.20;97.10;;;;;;5067636;28;20435;-45
2020/12/14 09:56:05;;;;;;;3.53;3.22;;;10.20;97.10;;;;;;5067908;28;20120;-42
2020/12/14 09:58:30;;;;;;;2.72;2.53;;;10.20;97.00;;;;;;5067304;28;20107;-43
2020/12/14 10:00:56;;;;;;;2.75;2.55;;;10.30;97.00;;;;;;5067596;28;20062;-43
2020/12/14 10:03:21;;;;;;;3.17;2.88;;;10.30;97.00;;;;;;5066777;28;20185;-42
2020/12/14 10:05:47;;;;;;;3.63;2.45;;;10.30;97.00;;;;;;5067334;28;20111;-42
2020/12/14 10:08:14;;;;;;;2.63;2.33;;;10.40;97.10;;;;;;5067001;28;20025;-43
2020/12/14 10:10:40;;;;;;;3.35;2.90;;;10.40;97.00;;;;;;5067717;28;20349;-43
2020/12/14 10:13:06;;;;;;;2.75;2.50;;;10.50;96.90;;;;;;5066756;28;20028;-42
2020/12/14 10:15:32;;;;;;;2.85;2.40;;;10.50;96.90;;;;;;5067155;28;20376;-42
2020/12/14 10:17:57;;;;;;;2.63;2.42;;;10.50;96.90;;;;;;5066818;28;20163;-43
2020/12/14 10:20:23;;;;;;;2.60;2.40;;;10.50;96.90;;;;;;5066931;28;20016;-44
2020/12/14 10:22:48;;;;;;;2.85;2.63;;;10.50;96.90;;;;;;5067328;28;20032;-43
2020/12/14 10:25:14;;;;;;;3.25;2.95;;;10.50;96.80;;;;;;5066068;28;20497;-43
2020/12/14 10:27:39;;;;;;;2.50;2.30;;;10.60;96.90;;;;;;5067455;28;20035;-44
2020/12/14 10:30:05;;;;;;;3.35;2.40;;;10.60;96.90;;;;;;5067161;28;20052;-44
2020/12/14 10:32:30;;;;;;;3.40;3.10;;;10.70;96.90;;;;;;5066377;28;20044;-43
2020/12/14 10:34:56;;;;;;;2.75;2.53;;;10.70;96.80;;;;;;5067412;28;20723;-43
2020/12/14 10:37:22;;;;;;;2.58;2.38;;;10.80;96.80;;;;;;5066507;28;20367;-46
2020/12/14 10:39:47;;;;;;;3.38;2.85;;;10.90;96.70;;;;;;5066465;28;20102;-42
2020/12/14 10:42:14;;;;;;;2.90;2.70;;;10.90;96.80;;;;;;5066473;28;20028;-43
2020/12/14 10:44:40;;;;;;;3.70;2.60;;;10.90;96.80;;;;;;5067193;28;20532;-44
2020/12/14 10:47:06;;;;;;;2.60;2.40;;;10.90;96.70;;;;;;5066360;28;20022;-43
2020/12/14 10:49:32;;;;;;;3.30;2.53;;;11.00;96.70;;;;;;5063703;28;20055;-42
2020/12/14 10:51:58;;;;;;;2.60;2.40;;;11.00;96.60;;;;;;5058154;28;20032;-43
2020/12/14 10:54:23;;;;;;;2.95;2.75;;;11.00;96.60;;;;;;5055298;28;20052;-42
2020/12/14 10:56:49;;;;;;;3.10;2.90;;;11.00;96.60;;;;;;5047252;28;20017;-43
2020/12/14 10:59:14;;;;;;;3.30;2.53;;;11.10;96.50;;;;;;5047362;28;20111;-43
2020/12/14 11:01:40;;;;;;;2.90;2.70;;;11.10;96.50;;;;;;5055749;28;20547;-43
2020/12/14 11:04:05;;;;;;;3.10;2.75;;;11.10;96.50;;;;;;5057659;28;20044;-43
2020/12/14 11:06:31;;;;;;;3.03;2.72;;;11.10;96.40;;;;;;5063890;28;20146;-42
2020/12/14 11:08:58;;;;;;;4.95;3.08;;;11.10;96.40;;;;;;5066466;28;20020;-42
2020/12/14 11:11:23;;;;;;;3.22;2.50;;;11.10;96.40;;;;;;5066478;28;20380;-44
2020/12/14 11:13:49;;;;;;;5.53;2.80;;;11.20;96.40;;;;;;5066426;28;20037;-42
2020/12/14 11:16:15;;;;;;;3.17;2.80;;;11.20;96.40;;;;;;5059567;28;20032;-44
2020/12/14 11:18:41;;;;;;;3.13;2.80;;;11.20;96.40;;;;;;5053617;28;20079;-44
2020/12/14 11:21:06;;;;;;;4.60;3.10;;;11.10;96.40;;;;;;5056604;28;20476;-42
2020/12/14 11:23:32;;;;;;;3.50;2.80;;;11.20;96.40;;;;;;5057292;28;20487;-43
2020/12/14 11:25:57;;;;;;;3.33;2.75;;;11.10;96.30;;;;;;5057561;28;20021;-44
2020/12/14 11:28:25;;;;;;;4.82;4.03;;;11.10;96.40;;;;;;5062859;28;20135;-43
2020/12/14 11:30:53;;;;;;;5.03;3.97;;;11.10;96.40;;;;;;5063125;28;20027;-42
2020/12/14 11:33:18;;;;;;;3.55;3.25;;;11.20;96.40;;;;;;5060293;28;20132;-43
2020/12/14 11:35:44;;;;;;;4.45;3.33;;;11.20;96.70;;;;;;5059038;28;20119;-43
2020/12/14 11:38:09;;;;;;;3.20;3.00;;;11.20;96.40;;;;;;5060494;28;20426;-43
2020/12/14 11:40:35;;;;;;;3.17;2.88;;;11.20;96.40;;;;;;5060225;28;20025;-43
2020/12/14 11:43:00;;;;;;;3.22;2.80;;;11.20;96.40;;;;;;5070162;28;20027;-43
2020/12/14 11:45:27;;;;;;;3.55;3.00;;;11.20;96.40;;;;;;5069909;28;20043;-43
2020/12/14 11:47:53;;;;;;;3.35;3.05;;;11.20;96.40;;;;;;5070717;28;20027;-42
2020/12/14 11:50:19;;;;;;;3.50;3.20;;;11.20;96.40;;;;;;5069449;28;20032;-44
2020/12/14 11:52:46;;;;;;;3.42;2.92;;;11.20;96.40;;;;;;5070419;28;20104;-43
2020/12/14 11:55:13;;;;;;;2.95;2.72;;;11.20;96.40;;;;;;5060442;28;20054;-42
2020/12/14 11:57:38;;;;;;;3.35;3.05;;;11.30;96.40;;;;;;5059023;28;20271;-43
2020/12/14 12:00:06;;;;;;;2.90;2.63;;;11.30;96.40;;;;;;5067199;28;20048;-43
2020/12/14 12:02:31;;;;;;;3.45;3.15;;;11.20;96.30;;;;;;5070003;28;20436;-42
2020/12/14 12:04:57;;;;;;;4.85;3.22;;;11.30;96.30;;;;;;5069838;28;20056;-42
2020/12/14 12:07:22;;;;;;;4.45;3.25;;;11.30;96.30;;;;;;5069651;28;20086;-42
2020/12/14 12:09:48;;;;;;;3.40;3.20;;;11.30;96.30;;;;;;5070264;28;20760;-42
2020/12/14 12:12:13;;;;;;;4.25;3.15;;;11.30;96.30;;;;;;5069000;28;20032;-43
2020/12/14 12:14:38;;;;;;;3.55;3.25;;;11.30;96.20;;;;;;5069943;28;20048;-43
2020/12/14 12:17:04;;;;;;;5.38;4.60;;;11.40;96.20;;;;;;5069786;28;20513;-43
2020/12/14 12:19:29;;;;;;;4.20;3.30;;;11.40;96.20;;;;;;5068883;28;20032;-43
2020/12/14 12:21:56;;;;;;;3.78;3.47;;;11.40;96.20;;;;;;5063308;28;20071;-43
2020/12/14 12:24:22;;;;;;;3.63;3.33;;;11.40;96.10;;;;;;5047870;28;20412;-43
2020/12/14 12:26:51;;;;;;;5.40;3.58;;;11.40;96.10;;;;;;5045381;28;20025;-43
2020/12/14 12:29:18;;;;;;;5.43;3.85;;;11.40;96.00;;;;;;5054310;28;20021;-43
2020/12/14 12:31:51;;;;;;;3.60;3.20;;;11.40;96.00;;;;;;5046056;28;20021;-42
2020/12/14 12:34:17;;;;;;;3.97;3.50;;;11.50;96.00;;;;;;5066449;28;20094;-43
2020/12/14 12:36:54;;;;;;;3.70;3.40;;;11.50;95.90;;;;;;5068512;28;20025;-43
2020/12/14 12:39:20;;;;;;;4.47;4.07;;;11.60;95.80;;;;;;5067664;28;20476;-43
2020/12/14 12:41:47;;;;;;;3.63;3.33;;;11.60;95.80;;;;;;5069062;28;20017;-43
2020/12/14 12:44:12;;;;;;;3.45;3.15;;;11.60;95.80;;;;;;5069005;28;20032;-43
2020/12/14 12:46:38;;;;;;;3.47;3.15;;;11.70;95.70;;;;;;5068637;28;20220;-45
2020/12/14 12:49:04;;;;;;;4.05;3.10;;;11.70;95.80;;;;;;5069448;28;20029;-43
2020/12/14 12:51:29;;;;;;;3.22;2.78;;;11.80;95.70;;;;;;5068764;28;20025;-42
2020/12/14 12:53:55;;;;;;;3.45;2.53;;;11.80;95.60;;;;;;5067450;28;20048;-42
2020/12/14 12:56:24;;;;;;;4.00;2.67;;;11.80;95.70;;;;;;5062850;28;20040;-42
2020/12/14 12:58:50;;;;;;;4.70;3.08;;;11.80;95.50;;;;;;5049777;28;20048;-44